Time,TemperatureF,DewpointF,PressureIn,WindDirection,WindDirectionDegrees,WindSpeedMPH,WindSpeedGustMPH,Humidity,HourlyPrecipIn,Conditions,Clouds,dailyrainin,SolarRadiationWatts/m^2,SoftwareType,DateUTC
2013-06-03 00:03:00,64.0,64.0,-100.00,ENE,69,1.0,4.0,99,0.00,,,0.67,0.000000,,2013-06-03 04:03:00,
2013-06-03 00:13:00,64.0,64.0,-100.00,ENE,69,1.0,4.0,99,0.00,,,0.67,0.000000,,2013-06-03 04:13:00,
2013-06-03 00:33:00,63.0,63.0,-100.00,SW,218,3.0,6.0,99,0.00,,,0.67,0.000000,,2013-06-03 04:33:00,
2013-06-03 00:42:00,63.0,63.0,-100.00,SW,218,3.0,6.0,99,0.00,,,0.67,0.000000,,2013-06-03 04:42:00,
2013-06-03 00:53:00,63.0,63.0,-100.00,SW,218,3.0,6.0,99,0.00,,,0.67,0.000000,,2013-06-03 04:53:00,
2013-06-03 01:02:00,63.0,63.0,-100.00,SW,218,3.0,6.0,99,0.00,,,0.67,0.000000,,2013-06-03 05:02:00,
2013-06-03 01:12:00,63.0,63.0,-100.00,SW,218,3.0,6.0,99,0.00,,,0.67,0.000000,,2013-06-03 05:12:00,
2013-06-03 01:32:00,61.0,61.0,-100.00,East,95,1.0,7.0,99,0.01,,,0.68,0.000000,,2013-06-03 05:32:00,
2013-06-03 01:43:00,61.0,61.0,-100.00,East,95,1.0,7.0,99,0.01,,,0.68,0.000000,,2013-06-03 05:43:00,
2013-06-03 01:52:00,61.0,61.0,-100.00,East,95,1.0,7.0,99,0.01,,,0.68,0.000000,,2013-06-03 05:52:00,
2013-06-03 02:02:00,61.0,61.0,-100.00,East,95,1.0,7.0,99,0.01,,,0.68,0.000000,,2013-06-03 06:02:00,
2013-06-03 02:12:00,61.0,61.0,-100.00,East,95,1.0,7.0,99,0.01,,,0.68,0.000000,,2013-06-03 06:12:00,
2013-06-03 02:32:00,61.0,61.0,-100.00,SE,127,1.0,5.0,99,0.00,,,0.68,0.000000,,2013-06-03 06:32:00,
2013-06-03 02:42:00,61.0,61.0,-100.00,SE,127,1.0,5.0,99,0.00,,,0.68,0.000000,,2013-06-03 06:42:00,
2013-06-03 02:53:00,61.0,61.0,-100.00,SE,127,1.0,5.0,99,0.00,,,0.68,0.000000,,2013-06-03 06:53:00,
2013-06-03 03:02:00,61.0,61.0,-100.00,SE,127,1.0,5.0,99,0.00,,,0.68,0.000000,,2013-06-03 07:02:00,
2013-06-03 03:12:00,61.0,61.0,-100.00,SE,127,1.0,5.0,99,0.00,,,0.68,0.000000,,2013-06-03 07:12:00,
2013-06-03 03:32:00,59.0,59.0,-100.00,West,268,0.0,3.0,99,0.00,,,0.68,0.000000,,2013-06-03 07:32:00,
2013-06-03 03:42:00,59.0,59.0,-100.00,West,268,0.0,3.0,99,0.00,,,0.68,0.000000,,2013-06-03 07:42:00,
2013-06-03 03:52:00,59.0,59.0,-100.00,West,268,0.0,3.0,99,0.00,,,0.68,0.000000,,2013-06-03 07:52:00,
2013-06-03 04:02:00,59.0,59.0,-100.00,West,268,0.0,3.0,99,0.00,,,0.68,0.000000,,2013-06-03 08:02:00,
2013-06-03 04:12:00,59.0,59.0,-100.00,West,268,0.0,3.0,99,0.00,,,0.68,0.000000,,2013-06-03 08:12:00,
2013-06-03 04:42:00,58.0,58.0,-100.00,WSW,239,1.0,4.0,99,0.00,,,0.68,0.000000,,2013-06-03 08:42:00,
2013-06-03 04:52:00,58.0,58.0,-100.00,WSW,239,1.0,4.0,99,0.00,,,0.68,0.000000,,2013-06-03 08:52:00,
2013-06-03 05:02:00,58.0,58.0,-100.00,WSW,239,1.0,4.0,99,0.00,,,0.68,0.000000,,2013-06-03 09:02:00,
2013-06-03 05:12:00,58.0,58.0,-100.00,WSW,239,1.0,4.0,99,0.00,,,0.68,0.000000,,2013-06-03 09:12:00,
2013-06-03 05:43:00,58.0,58.0,-100.00,SW,217,0.0,2.0,100,0.00,,,0.68,1.000000,,2013-06-03 09:43:00,
2013-06-03 05:53:00,58.0,58.0,-100.00,SW,217,0.0,2.0,100,0.00,,,0.68,1.000000,,2013-06-03 09:53:00,
2013-06-03 06:03:00,58.0,58.0,-100.00,SW,217,0.0,2.0,100,0.00,,,0.68,1.000000,,2013-06-03 10:03:00,
2013-06-03 06:13:00,58.0,58.0,-100.00,SW,217,0.0,2.0,100,0.00,,,0.68,1.000000,,2013-06-03 10:13:00,
2013-06-03 06:33:00,58.0,58.0,-100.00,NNW,336,0.0,2.0,100,0.00,,,0.68,15.000000,,2013-06-03 10:33:00,
2013-06-03 06:42:00,58.0,58.0,-100.00,NNW,336,0.0,2.0,100,0.00,,,0.68,15.000000,,2013-06-03 10:42:00,
2013-06-03 06:53:00,58.0,58.0,-100.00,NNW,336,0.0,2.0,100,0.00,,,0.68,15.000000,,2013-06-03 10:53:00,
2013-06-03 07:02:00,58.0,58.0,-100.00,NNW,336,0.0,2.0,100,0.00,,,0.68,15.000000,,2013-06-03 11:02:00,
2013-06-03 07:12:00,58.0,58.0,-100.00,NNW,336,0.0,2.0,100,0.00,,,0.68,15.000000,,2013-06-03 11:12:00,
2013-06-03 07:32:00,60.0,60.0,-100.00,NNW,336,0.0,5.0,100,0.00,,,0.68,52.000000,,2013-06-03 11:32:00,
2013-06-03 07:42:00,60.0,60.0,-100.00,NNW,336,0.0,5.0,100,0.00,,,0.68,52.000000,,2013-06-03 11:42:00,
2013-06-03 07:52:00,60.0,60.0,-100.00,NNW,336,0.0,5.0,100,0.00,,,0.68,52.000000,,2013-06-03 11:52:00,
2013-06-03 08:02:00,60.0,60.0,-100.00,NNW,336,0.0,5.0,100,0.00,,,0.68,52.000000,,2013-06-03 12:02:00,
2013-06-03 08:12:00,60.0,60.0,-100.00,NNW,336,0.0,5.0,100,0.00,,,0.68,52.000000,,2013-06-03 12:12:00,
2013-06-03 08:32:00,62.0,62.0,-100.00,South,178,1.0,4.0,99,0.00,,,0.68,94.000000,,2013-06-03 12:32:00,
2013-06-03 08:42:00,62.0,62.0,-100.00,South,178,1.0,4.0,99,0.00,,,0.68,94.000000,,2013-06-03 12:42:00,
2013-06-03 08:52:00,62.0,62.0,-100.00,South,178,1.0,4.0,99,0.00,,,0.68,94.000000,,2013-06-03 12:52:00,
2013-06-03 09:02:00,62.0,62.0,-100.00,South,178,1.0,4.0,99,0.00,,,0.68,94.000000,,2013-06-03 13:02:00,
2013-06-03 09:12:00,62.0,62.0,-100.00,South,178,1.0,4.0,99,0.00,,,0.68,94.000000,,2013-06-03 13:12:00,
2013-06-03 09:33:00,71.0,64.0,-100.00,SSW,211,3.0,8.0,78,0.00,,,0.68,401.000000,,2013-06-03 13:33:00,
2013-06-03 09:43:00,71.0,64.0,-100.00,SSW,211,3.0,8.0,78,0.00,,,0.68,401.000000,,2013-06-03 13:43:00,
2013-06-03 09:53:00,71.0,64.0,-100.00,SSW,211,3.0,8.0,78,0.00,,,0.68,401.000000,,2013-06-03 13:53:00,
2013-06-03 10:02:00,71.0,64.0,-100.00,SSW,211,3.0,8.0,78,0.00,,,0.68,401.000000,,2013-06-03 14:02:00,
2013-06-03 10:13:00,71.0,64.0,-100.00,SSW,211,3.0,8.0,78,0.00,,,0.68,401.000000,,2013-06-03 14:13:00,
2013-06-03 10:33:00,70.0,61.0,-100.00,West,273,4.0,12.0,73,0.00,,,0.68,398.000000,,2013-06-03 14:33:00,
2013-06-03 10:42:00,70.0,61.0,-100.00,West,273,4.0,12.0,73,0.00,,,0.68,398.000000,,2013-06-03 14:42:00,
2013-06-03 10:52:00,70.0,61.0,-100.00,West,273,4.0,12.0,73,0.00,,,0.68,398.000000,,2013-06-03 14:52:00,
2013-06-03 11:02:00,70.0,61.0,-100.00,West,273,4.0,12.0,73,0.00,,,0.68,398.000000,,2013-06-03 15:02:00,
2013-06-03 11:12:00,70.0,61.0,-100.00,West,273,4.0,12.0,73,0.00,,,0.68,398.000000,,2013-06-03 15:12:00,
2013-06-03 11:43:00,72.0,59.0,-100.00,West,273,6.0,14.0,63,0.00,,,0.68,770.000000,,2013-06-03 15:43:00,
2013-06-03 11:53:00,72.0,59.0,-100.00,West,273,6.0,14.0,63,0.00,,,0.68,770.000000,,2013-06-03 15:53:00,
2013-06-03 12:03:00,72.0,59.0,-100.00,West,273,6.0,14.0,63,0.00,,,0.68,770.000000,,2013-06-03 16:03:00,
2013-06-03 12:13:00,72.0,59.0,-100.00,West,273,6.0,14.0,63,0.00,,,0.68,770.000000,,2013-06-03 16:13:00,
2013-06-03 12:33:00,69.0,57.0,-100.00,WSW,244,9.0,16.0,65,0.00,,,0.68,880.000000,,2013-06-03 16:33:00,
2013-06-03 12:42:00,69.0,57.0,-100.00,WSW,244,9.0,16.0,65,0.00,,,0.68,880.000000,,2013-06-03 16:42:00,
2013-06-03 12:53:00,69.0,57.0,-100.00,WSW,244,9.0,16.0,65,0.00,,,0.68,880.000000,,2013-06-03 16:53:00,
2013-06-03 13:02:00,69.0,57.0,-100.00,WSW,244,9.0,16.0,65,0.00,,,0.68,880.000000,,2013-06-03 17:02:00,
2013-06-03 13:12:00,69.0,57.0,-100.00,WSW,244,9.0,16.0,65,0.00,,,0.68,880.000000,,2013-06-03 17:12:00,
2013-06-03 13:33:00,71.0,56.0,-100.00,West,259,9.0,17.0,60,0.00,,,0.68,996.000000,,2013-06-03 17:33:00,
2013-06-03 13:42:00,71.0,56.0,-100.00,West,259,9.0,17.0,60,0.00,,,0.68,996.000000,,2013-06-03 17:42:00,
2013-06-03 13:52:00,71.0,56.0,-100.00,West,259,9.0,17.0,60,0.00,,,0.68,996.000000,,2013-06-03 17:52:00,
2013-06-03 14:03:00,71.0,56.0,-100.00,West,259,9.0,17.0,60,0.00,,,0.68,996.000000,,2013-06-03 18:03:00,
2013-06-03 14:12:00,71.0,56.0,-100.00,West,259,9.0,17.0,60,0.00,,,0.68,996.000000,,2013-06-03 18:12:00,
2013-06-03 14:32:00,71.0,54.0,-100.00,WSW,253,7.0,19.0,56,0.00,,,0.68,916.000000,,2013-06-03 18:32:00,
2013-06-03 14:43:00,71.0,54.0,-100.00,WSW,253,7.0,19.0,56,0.00,,,0.68,916.000000,,2013-06-03 18:43:00,
2013-06-03 14:53:00,71.0,54.0,-100.00,WSW,253,7.0,19.0,56,0.00,,,0.68,916.000000,,2013-06-03 18:53:00,
2013-06-03 15:03:00,71.0,54.0,-100.00,WSW,253,7.0,19.0,56,0.00,,,0.68,916.000000,,2013-06-03 19:03:00,
2013-06-03 15:12:00,71.0,54.0,-100.00,WSW,253,7.0,19.0,56,0.00,,,0.68,916.000000,,2013-06-03 19:12:00,
2013-06-03 15:33:00,72.0,53.0,-100.00,WNW,297,7.0,18.0,51,0.00,,,0.58,899.000000,,2013-06-03 19:33:00,
2013-06-03 15:42:00,72.0,53.0,-100.00,WNW,297,7.0,18.0,51,0.00,,,0.58,899.000000,,2013-06-03 19:42:00,
2013-06-03 15:53:00,72.0,53.0,-100.00,WNW,297,7.0,18.0,51,0.00,,,0.58,899.000000,,2013-06-03 19:53:00,
2013-06-03 16:02:00,72.0,53.0,-100.00,WNW,297,7.0,18.0,51,0.00,,,0.58,899.000000,,2013-06-03 20:02:00,
2013-06-03 16:12:00,72.0,53.0,-100.00,WNW,297,7.0,18.0,51,0.00,,,0.58,899.000000,,2013-06-03 20:12:00,
2013-06-03 16:33:00,72.0,53.0,-100.00,NW,309,6.0,16.0,51,0.00,,,0.34,799.000000,,2013-06-03 20:33:00,
2013-06-03 16:43:00,72.0,53.0,-100.00,NW,309,6.0,16.0,51,0.00,,,0.34,799.000000,,2013-06-03 20:43:00,
2013-06-03 16:52:00,72.0,53.0,-100.00,NW,309,6.0,16.0,51,0.00,,,0.34,799.000000,,2013-06-03 20:52:00,
2013-06-03 17:02:00,72.0,53.0,-100.00,NW,309,6.0,16.0,51,0.00,,,0.34,799.000000,,2013-06-03 21:02:00,
2013-06-03 17:12:00,72.0,53.0,-100.00,NW,309,6.0,16.0,51,0.00,,,0.34,799.000000,,2013-06-03 21:12:00,
2013-06-03 17:43:00,69.0,49.0,-100.00,WNW,283,7.0,14.0,49,0.00,,,0.22,625.000000,,2013-06-03 21:43:00,
2013-06-03 17:53:00,69.0,49.0,-100.00,WNW,283,7.0,14.0,49,0.00,,,0.22,625.000000,,2013-06-03 21:53:00,
2013-06-03 18:03:00,69.0,49.0,-100.00,WNW,283,7.0,14.0,49,0.00,,,0.22,625.000000,,2013-06-03 22:03:00,
2013-06-03 18:12:00,69.0,49.0,-100.00,WNW,283,7.0,14.0,49,0.00,,,0.22,625.000000,,2013-06-03 22:12:00,
2013-06-03 18:33:00,69.0,50.0,-100.00,WSW,247,5.0,12.0,50,0.00,,,0.19,425.000000,,2013-06-03 22:33:00,
2013-06-03 18:42:00,69.0,50.0,-100.00,WSW,247,5.0,12.0,50,0.00,,,0.19,425.000000,,2013-06-03 22:42:00,
2013-06-03 18:53:00,69.0,50.0,-100.00,WSW,247,5.0,12.0,50,0.00,,,0.19,425.000000,,2013-06-03 22:53:00,
2013-06-03 19:02:00,69.0,50.0,-100.00,WSW,247,5.0,12.0,50,0.00,,,0.19,425.000000,,2013-06-03 23:02:00,
2013-06-03 19:12:00,69.0,50.0,-100.00,WSW,247,5.0,12.0,50,0.00,,,0.19,425.000000,,2013-06-03 23:12:00,
2013-06-03 19:32:00,65.0,47.0,-100.00,SW,219,4.0,9.0,52,0.00,,,0.19,238.000000,,2013-06-03 23:32:00,
2013-06-03 19:42:00,65.0,47.0,-100.00,SW,219,4.0,9.0,52,0.00,,,0.19,238.000000,,2013-06-03 23:42:00,
2013-06-03 19:52:00,65.0,47.0,-100.00,SW,219,4.0,9.0,52,0.00,,,0.19,238.000000,,2013-06-03 23:52:00,
2013-06-03 20:02:00,65.0,47.0,-100.00,SW,219,4.0,9.0,52,0.00,,,0.19,238.000000,,2013-06-04 00:02:00,
2013-06-03 20:12:00,65.0,47.0,-100.00,SW,219,4.0,9.0,52,0.00,,,0.19,238.000000,,2013-06-04 00:12:00,
2013-06-03 20:32:00,59.0,47.0,-100.00,WSW,246,3.0,9.0,64,0.00,,,-99.99,21.000000,,2013-06-04 00:32:00,
2013-06-03 20:42:00,59.0,47.0,-100.00,WSW,246,3.0,9.0,64,0.00,,,-99.99,21.000000,,2013-06-04 00:42:00,
2013-06-03 20:52:00,59.0,47.0,-100.00,WSW,246,3.0,9.0,64,0.00,,,-99.99,21.000000,,2013-06-04 00:52:00,
2013-06-03 21:02:00,59.0,47.0,-100.00,WSW,246,3.0,9.0,64,0.00,,,-99.99,21.000000,,2013-06-04 01:02:00,
2013-06-03 21:12:00,59.0,47.0,-100.00,WSW,246,3.0,9.0,64,0.00,,,-99.99,21.000000,,2013-06-04 01:12:00,
2013-06-03 21:32:00,54.0,48.0,-100.00,ENE,63,2.0,6.0,81,0.00,,,0.14,3.000000,,2013-06-04 01:32:00,
2013-06-03 21:42:00,54.0,48.0,-100.00,ENE,63,2.0,6.0,81,0.00,,,0.14,3.000000,,2013-06-04 01:42:00,
2013-06-03 21:53:00,54.0,48.0,-100.00,ENE,63,2.0,6.0,81,0.00,,,0.14,3.000000,,2013-06-04 01:53:00,
2013-06-03 22:03:00,54.0,48.0,-100.00,ENE,63,2.0,6.0,81,0.00,,,0.14,3.000000,,2013-06-04 02:03:00,
2013-06-03 22:12:00,54.0,48.0,-100.00,ENE,63,2.0,6.0,81,0.00,,,0.14,3.000000,,2013-06-04 02:12:00,
2013-06-03 22:32:00,51.0,47.0,-100.00,ESE,103,2.0,5.0,86,0.00,,,0.01,0.000000,,2013-06-04 02:32:00,
2013-06-03 22:42:00,51.0,47.0,-100.00,ESE,103,2.0,5.0,86,0.00,,,0.01,0.000000,,2013-06-04 02:42:00,
2013-06-03 22:52:00,51.0,47.0,-100.00,ESE,103,2.0,5.0,86,0.00,,,0.01,0.000000,,2013-06-04 02:52:00,
2013-06-03 23:02:00,51.0,47.0,-100.00,ESE,103,2.0,5.0,86,0.00,,,0.01,0.000000,,2013-06-04 03:02:00,
2013-06-03 23:12:00,51.0,47.0,-100.00,ESE,103,2.0,5.0,86,0.00,,,0.01,0.000000,,2013-06-04 03:12:00,
2013-06-03 23:33:00,49.0,44.0,-100.00,North,3,2.0,5.0,84,0.00,,,0.01,0.000000,,2013-06-04 03:33:00,
2013-06-03 23:43:00,49.0,44.0,-100.00,North,3,2.0,5.0,84,0.00,,,0.01,0.000000,,2013-06-04 03:43:00,
2013-06-03 23:54:00,49.0,44.0,-100.00,North,3,2.0,5.0,84,0.00,,,0.01,0.000000,,2013-06-04 03:54:00,